Time;durP1;ratioP1;P1;durP2;ratioP2;P2;SDS_P1;SDS_P2;PMS_P1;PMS_P2;Temp;Humidity;BMP_temperature;BMP_pressure;BME280_temperature;BME280_humidity;BME280_pressure;Samples;Min_cycle;Max_cycle;Signal;HPM_P1;HPM_P2
2024/04/06 00:01:16;;;;;;;3.10;2.00;;;16.80;99.90;;;;;;5004303;28;20468;-71
2024/04/06 00:03:41;;;;;;;3.97;2.20;;;16.70;99.90;;;;;;5022129;28;20716;-70
2024/04/06 00:06:07;;;;;;;2.30;1.53;;;16.70;99.90;;;;;;5022089;28;20839;-71
2024/04/06 00:08:33;;;;;;;2.80;1.97;;;16.70;99.90;;;;;;5004482;28;20256;-71
2024/04/06 00:10:59;;;;;;;5.67;1.77;;;16.70;99.90;;;;;;5022045;28;20429;-70
2024/04/06 00:13:24;;;;;;;3.97;2.23;;;16.70;99.90;;;;;;5022014;28;20178;-69
2024/04/06 00:15:50;;;;;;;6.83;2.23;;;16.70;99.90;;;;;;5022163;28;20468;-70
2024/04/06 00:18:16;;;;;;;4.30;2.23;;;16.70;99.90;;;;;;5022074;28;20643;-70
2024/04/06 00:20:41;;;;;;;4.90;1.60;;;16.70;99.90;;;;;;5021840;28;20238;-70
2024/04/06 00:23:07;;;;;;;2.30;1.70;;;16.60;99.90;;;;;;5022120;28;20250;-70
2024/04/06 00:25:32;;;;;;;4.30;2.07;;;16.60;99.90;;;;;;5022191;28;20183;-71
2024/04/06 00:27:58;;;;;;;3.60;1.77;;;16.70;99.90;;;;;;5022033;28;20222;-72
2024/04/06 00:30:24;;;;;;;3.70;2.40;;;16.70;99.90;;;;;;5004845;28;20171;-71
2024/04/06 00:32:49;;;;;;;1.90;1.70;;;16.50;99.90;;;;;;5022180;28;20546;-69
2024/04/06 00:35:16;;;;;;;3.43;2.17;;;16.60;99.90;;;;;;5022116;28;20273;-70
2024/04/06 00:37:42;;;;;;;4.87;2.97;;;16.70;99.90;;;;;;5021994;28;20664;-70
2024/04/06 00:40:08;;;;;;;3.83;2.40;;;16.70;99.90;;;;;;5004105;28;20461;-70
2024/04/06 00:42:34;;;;;;;3.57;2.20;;;16.70;99.90;;;;;;5004134;28;20582;-70
2024/04/06 00:45:00;;;;;;;3.13;2.50;;;16.70;99.90;;;;;;5022073;28;20418;-70
2024/04/06 00:47:25;;;;;;;2.40;2.10;;;16.60;99.90;;;;;;5021910;28;20248;-70
2024/04/06 00:49:51;;;;;;;3.87;1.80;;;16.70;99.90;;;;;;5021925;28;20207;-71
2024/04/06 00:52:16;;;;;;;2.00;1.70;;;16.70;99.90;;;;;;5021751;28;21655;-69
2024/04/06 00:54:42;;;;;;;3.93;2.00;;;16.60;99.90;;;;;;5021282;28;20179;-69
2024/04/06 00:57:08;;;;;;;5.07;2.43;;;16.60;99.90;;;;;;5022018;28;20190;-72
2024/04/06 00:59:38;;;;;;;4.50;2.30;;;16.50;99.90;;;;;;5021823;28;20777;-71
2024/04/06 01:02:05;;;;;;;1.90;1.70;;;16.40;99.90;;;;;;5022101;28;20425;-71
2024/04/06 01:04:30;;;;;;;5.30;1.90;;;16.40;99.90;;;;;;5022418;28;20424;-71
2024/04/06 01:06:56;;;;;;;2.80;2.10;;;16.30;99.90;;;;;;5022087;28;20405;-71
2024/04/06 01:09:23;;;;;;;6.20;2.30;;;16.30;99.90;;;;;;5022165;28;20191;-72
2024/04/06 01:11:48;;;;;;;2.77;2.07;;;16.10;99.90;;;;;;5024815;28;20201;-70
2024/04/06 01:14:14;;;;;;;5.00;2.67;;;16.00;99.90;;;;;;5025688;28;20800;-71
2024/04/06 01:16:40;;;;;;;5.17;2.03;;;16.00;99.90;;;;;;5025758;28;20175;-72
2024/04/06 01:19:05;;;;;;;3.77;2.10;;;15.90;99.90;;;;;;5007376;28;20267;-72
2024/04/06 01:21:31;;;;;;;2.57;2.10;;;15.90;99.90;;;;;;5025473;28;20870;-71
2024/04/06 01:23:56;;;;;;;3.80;1.80;;;15.80;99.90;;;;;;5025593;28;20187;-71
2024/04/06 01:26:22;;;;;;;2.47;2.10;;;15.70;99.90;;;;;;5025289;28;20270;-71
2024/04/06 01:28:48;;;;;;;2.33;1.63;;;15.60;99.90;;;;;;5025108;28;20716;-72
2024/04/06 01:31:14;;;;;;;2.43;1.63;;;15.60;99.90;;;;;;5025266;28;20519;-70
2024/04/06 01:33:40;;;;;;;4.40;2.33;;;15.50;99.90;;;;;;5006962;28;20508;-70
2024/04/06 01:36:06;;;;;;;2.97;2.10;;;15.50;99.90;;;;;;5025170;28;20195;-71
2024/04/06 01:38:32;;;;;;;7.00;1.97;;;15.30;99.90;;;;;;5024677;28;20209;-72
2024/04/06 01:40:58;;;;;;;2.60;2.10;;;15.30;99.90;;;;;;5025187;28;20542;-71
2024/04/06 01:43:24;;;;;;;4.53;2.43;;;15.40;99.90;;;;;;5025255;28;20169;-71
2024/04/06 01:45:50;;;;;;;3.13;1.83;;;15.40;99.90;;;;;;5024801;28;20428;-72
2024/04/06 01:48:16;;;;;;;2.70;2.07;;;15.40;99.90;;;;;;5024855;28;20617;-70
2024/04/06 01:50:41;;;;;;;5.03;2.20;;;15.30;99.90;;;;;;5024723;28;20185;-71
2024/04/06 01:53:08;;;;;;;2.07;1.87;;;15.20;99.90;;;;;;5025181;28;20676;-73
2024/04/06 01:55:33;;;;;;;2.97;2.00;;;15.10;99.90;;;;;;5024869;28;20504;-72
2024/04/06 01:57:59;;;;;;;2.30;1.87;;;15.00;99.90;;;;;;5024764;28;20295;-71
2024/04/06 02:00:24;;;;;;;2.73;2.00;;;15.10;99.90;;;;;;5024521;28;20226;-71
2024/04/06 02:02:50;;;;;;;3.43;2.03;;;15.00;99.90;;;;;;5025005;28;20182;-71
2024/04/06 02:05:15;;;;;;;4.77;2.30;;;14.90;99.90;;;;;;5025137;28;20198;-71
2024/04/06 02:07:41;;;;;;;6.30;2.67;;;14.80;99.90;;;;;;5026083;28;20972;-71
2024/04/06 02:10:06;;;;;;;2.70;1.97;;;14.70;99.90;;;;;;5025565;28;20621;-72
2024/04/06 02:12:32;;;;;;;2.83;2.30;;;14.80;99.90;;;;;;5026184;28;20190;-73
2024/04/06 02:14:58;;;;;;;2.43;1.67;;;14.80;99.90;;;;;;5024955;28;20251;-71
2024/04/06 02:17:24;;;;;;;2.60;1.77;;;14.70;99.90;;;;;;5025247;28;20427;-72
2024/04/06 02:19:50;;;;;;;2.30;2.10;;;14.60;99.90;;;;;;5029167;28;20225;-72
2024/04/06 02:22:15;;;;;;;3.30;1.97;;;14.60;99.90;;;;;;5029230;28;20874;-72
2024/04/06 02:24:41;;;;;;;2.47;2.20;;;14.50;99.90;;;;;;5027572;28;20184;-71
2024/04/06 02:27:07;;;;;;;3.60;1.90;;;14.50;99.90;;;;;;5025097;28;20279;-72
2024/04/06 02:29:33;;;;;;;2.83;2.33;;;14.40;99.90;;;;;;5031545;28;20308;-72
2024/04/06 02:31:58;;;;;;;2.90;2.20;;;14.50;99.90;;;;;;5031163;28;20425;-72
2024/04/06 02:34:24;;;;;;;3.67;2.47;;;14.50;99.90;;;;;;5029879;28;20183;-70
2024/04/06 02:36:50;;;;;;;3.23;2.10;;;14.50;99.90;;;;;;5028868;28;20307;-71
2024/04/06 02:39:15;;;;;;;3.43;2.13;;;14.50;99.90;;;;;;5028047;28;20230;-72
2024/04/06 02:41:41;;;;;;;3.10;1.70;;;14.40;99.90;;;;;;5026267;28;20204;-70
2024/04/06 02:44:07;;;;;;;2.83;2.17;;;14.40;99.90;;;;;;5026293;28;20947;-70
2024/04/06 02:46:33;;;;;;;2.60;1.77;;;14.40;99.90;;;;;;5026203;28;20549;-69
2024/04/06 02:48:59;;;;;;;2.00;1.63;;;14.40;99.90;;;;;;5023201;28;20211;-71
2024/04/06 02:51:25;;;;;;;1.70;1.40;;;14.30;99.90;;;;;;5023204;28;20416;-71
2024/04/06 02:53:51;;;;;;;3.53;2.10;;;14.40;99.90;;;;;;5023417;28;20304;-71
2024/04/06 02:56:16;;;;;;;2.77;2.07;;;14.50;99.90;;;;;;5023338;28;20566;-72
2024/04/06 02:58:42;;;;;;;4.23;2.27;;;14.50;99.90;;;;;;5023214;28;21300;-71
2024/04/06 03:01:08;;;;;;;3.90;2.30;;;14.60;99.90;;;;;;5023238;28;20201;-71
2024/04/06 03:03:33;;;;;;;4.70;2.47;;;14.70;99.90;;;;;;5006101;28;20256;-71
2024/04/06 03:06:00;;;;;;;2.83;2.23;;;14.80;99.90;;;;;;5023263;28;20178;-70
2024/04/06 03:08:25;;;;;;;4.47;2.03;;;14.80;99.90;;;;;;5023239;28;20267;-71
2024/04/06 03:10:51;;;;;;;2.70;2.10;;;14.80;99.90;;;;;;5023017;28;20428;-70
2024/04/06 03:13:17;;;;;;;1.80;1.70;;;14.90;99.90;;;;;;5023101;28;20199;-70
2024/04/06 03:15:42;;;;;;;1.97;1.77;;;14.90;99.90;;;;;;5022787;28;20185;-71
2024/04/06 03:18:08;;;;;;;2.10;1.90;;;14.70;99.90;;;;;;5022986;28;20198;-71
2024/04/06 03:20:33;;;;;;;3.00;1.97;;;14.70;99.90;;;;;;5022904;28;20791;-70
2024/04/06 03:23:03;;;;;;;3.60;1.97;;;14.70;99.90;;;;;;5023072;28;20260;-70
2024/04/06 03:25:30;;;;;;;2.20;2.00;;;14.60;99.90;;;;;;5023230;28;20186;-72
2024/04/06 03:27:56;;;;;;;3.33;1.80;;;14.70;99.90;;;;;;5022636;28;20913;-71
2024/04/06 03:30:23;;;;;;;2.53;2.03;;;14.60;99.90;;;;;;5022727;28;20514;-71
2024/04/06 03:32:49;;;;;;;3.73;2.00;;;14.60;99.90;;;;;;5022318;28;20178;-70
2024/04/06 03:35:15;;;;;;;2.50;2.17;;;14.60;99.90;;;;;;5022190;28;20532;-70
2024/04/06 03:37:40;;;;;;;4.90;2.00;;;14.60;99.90;;;;;;5023051;28;20510;-71
2024/04/06 03:40:06;;;;;;;3.00;1.80;;;14.60;99.90;;;;;;5022636;28;20212;-71
2024/04/06 03:42:32;;;;;;;2.30;1.93;;;14.60;99.90;;;;;;5022722;28;20189;-72
2024/04/06 03:44:58;;;;;;;3.40;2.23;;;14.60;99.90;;;;;;5022167;28;20439;-71
2024/04/06 03:47:24;;;;;;;4.60;2.10;;;14.50;99.90;;;;;;5022412;28;20414;-72
2024/04/06 03:49:49;;;;;;;2.10;1.70;;;14.40;99.90;;;;;;5022269;28;20216;-71
2024/04/06 03:52:15;;;;;;;2.90;2.37;;;14.20;99.90;;;;;;5022240;28;20758;-71
2024/04/06 03:54:41;;;;;;;4.80;2.50;;;14.00;99.90;;;;;;5022401;28;20211;-70
2024/04/06 03:57:06;;;;;;;4.13;2.20;;;14.10;99.90;;;;;;5004091;28;20183;-71
2024/04/06 03:59:32;;;;;;;4.30;2.40;;;14.10;99.90;;;;;;5022309;28;20206;-70
2024/04/06 04:01:58;;;;;;;2.57;2.27;;;14.00;99.90;;;;;;5022470;28;20177;-71
2024/04/06 04:04:23;;;;;;;2.03;1.53;;;14.00;99.90;;;;;;5022513;28;20205;-70
2024/04/06 04:06:49;;;;;;;3.50;2.50;;;13.80;99.90;;;;;;5021960;28;20478;-70
2024/04/06 04:09:15;;;;;;;3.63;2.20;;;13.90;99.90;;;;;;5022179;28;20220;-70
2024/04/06 04:11:41;;;;;;;2.70;1.90;;;13.80;99.90;;;;;;5021995;28;20278;-71
2024/04/06 04:14:06;;;;;;;2.50;2.23;;;13.80;99.90;;;;;;5022377;28;20440;-70
2024/04/06 04:16:33;;;;;;;3.33;2.20;;;13.80;99.90;;;;;;5022213;28;20417;-71
2024/04/06 04:18:58;;;;;;;4.00;2.60;;;13.80;99.90;;;;;;5022163;28;20686;-70
2024/04/06 04:21:24;;;;;;;2.93;2.33;;;13.70;99.90;;;;;;5004158;28;20918;-70
2024/04/06 04:23:49;;;;;;;2.57;2.00;;;13.60;99.90;;;;;;5021897;28;20560;-72
2024/04/06 04:26:15;;;;;;;2.80;2.20;;;13.60;99.90;;;;;;5022008;28;20194;-71
2024/04/06 04:28:41;;;;;;;2.27;1.80;;;13.70;99.90;;;;;;5021932;28;20390;-71
2024/04/06 04:31:17;;;;;;;5.33;2.17;;;13.60;99.90;;;;;;5022142;28;20629;-70
2024/04/06 04:33:44;;;;;;;2.40;1.97;;;13.50;99.90;;;;;;5021445;28;20178;-71
2024/04/06 04:36:12;;;;;;;2.47;1.93;;;13.50;99.90;;;;;;5022053;28;20416;-71
2024/04/06 04:38:38;;;;;;;3.00;2.10;;;13.50;99.90;;;;;;5022165;28;20436;-70
2024/04/06 04:41:04;;;;;;;3.40;2.30;;;13.50;99.90;;;;;;5021319;28;20449;-71
2024/04/06 04:43:30;;;;;;;5.53;2.10;;;13.50;99.90;;;;;;5021804;28;20429;-70
2024/04/06 04:45:55;;;;;;;2.80;1.97;;;13.40;99.90;;;;;;5024868;28;20177;-71
2024/04/06 04:48:21;;;;;;;3.40;2.40;;;13.40;99.90;;;;;;5025935;28;20621;-70
2024/04/06 04:50:46;;;;;;;4.93;1.80;;;13.30;99.90;;;;;;5026332;28;20197;-69
2024/04/06 04:53:12;;;;;;;4.10;2.50;;;13.30;99.90;;;;;;5026500;28;20570;-72
2024/04/06 04:55:38;;;;;;;1.90;1.73;;;13.30;99.90;;;;;;5026406;28;20209;-71
2024/04/06 04:58:03;;;;;;;2.23;2.03;;;13.30;99.90;;;;;;5026027;28;20202;-72
2024/04/06 05:00:29;;;;;;;3.10;2.03;;;13.20;99.90;;;;;;5026010;28;20238;-71
2024/04/06 05:02:56;;;;;;;2.77;2.07;;;13.20;99.90;;;;;;5025618;28;20186;-72
2024/04/06 05:05:22;;;;;;;3.07;2.30;;;13.30;99.90;;;;;;5025505;28;20430;-71
2024/04/06 05:07:48;;;;;;;3.33;2.53;;;13.30;99.90;;;;;;5024899;28;20426;-71
2024/04/06 05:10:14;;;;;;;2.40;2.00;;;13.20;99.90;;;;;;5025485;28;20421;-71
2024/04/06 05:12:39;;;;;;;4.00;2.10;;;13.20;99.90;;;;;;5025436;28;20192;-71
2024/04/06 05:15:05;;;;;;;3.13;2.13;;;13.10;99.90;;;;;;5025312;28;20187;-72
2024/04/06 05:17:31;;;;;;;4.37;2.30;;;13.10;99.90;;;;;;5025298;28;20194;-72
2024/04/06 05:19:56;;;;;;;4.83;2.77;;;13.20;99.90;;;;;;5025311;28;20448;-70
2024/04/06 05:22:22;;;;;;;2.40;2.10;;;13.30;99.90;;;;;;5025397;28;20598;-70
2024/04/06 05:24:48;;;;;;;2.53;2.10;;;13.50;99.90;;;;;;5025192;28;20196;-70
2024/04/06 05:27:13;;;;;;;4.77;2.80;;;13.50;99.90;;;;;;5025096;28;20174;-70
2024/04/06 05:29:39;;;;;;;2.50;2.07;;;13.50;99.90;;;;;;5024529;28;20277;-71
2024/04/06 05:32:05;;;;;;;2.27;2.07;;;13.60;99.90;;;;;;5025098;28;20247;-70
2024/04/06 05:34:31;;;;;;;2.40;2.20;;;13.60;99.90;;;;;;5024825;28;20186;-71
2024/04/06 05:36:56;;;;;;;3.77;2.20;;;13.60;99.90;;;;;;5025152;28;20899;-72
2024/04/06 05:39:22;;;;;;;3.33;2.30;;;13.60;99.90;;;;;;5006682;28;20200;-68
2024/04/06 05:41:48;;;;;;;2.93;2.57;;;13.50;99.90;;;;;;5024725;28;21099;-69
2024/04/06 05:44:14;;;;;;;2.07;1.97;;;13.60;99.90;;;;;;5025306;28;20657;-69
2024/04/06 05:46:39;;;;;;;3.20;2.60;;;13.70;99.90;;;;;;5006522;28;20428;-68
2024/04/06 05:49:07;;;;;;;3.37;2.17;;;13.80;99.90;;;;;;5024649;28;20831;-69
2024/04/06 05:51:33;;;;;;;3.03;2.03;;;13.80;99.90;;;;;;5024897;28;20543;-69
2024/04/06 05:54:00;;;;;;;3.27;2.10;;;13.90;99.90;;;;;;5024725;28;20417;-69
2024/04/06 05:56:26;;;;;;;2.23;1.73;;;14.00;99.90;;;;;;5023702;28;20761;-68
2024/04/06 05:58:52;;;;;;;3.10;2.63;;;14.10;99.90;;;;;;5024368;28;20434;-69
2024/04/06 06:01:17;;;;;;;2.20;2.00;;;14.10;99.90;;;;;;5024328;28;20214;-68
2024/04/06 06:03:43;;;;;;;2.60;2.03;;;14.20;99.90;;;;;;5024124;28;20182;-69
2024/04/06 06:06:09;;;;;;;3.40;2.10;;;14.20;99.90;;;;;;5024281;28;20225;-69
2024/04/06 06:08:34;;;;;;;2.80;2.60;;;14.20;99.90;;;;;;5024341;28;20233;-70
2024/04/06 06:11:00;;;;;;;4.00;2.00;;;14.30;99.90;;;;;;5024346;28;20332;-69
2024/04/06 06:13:25;;;;;;;5.10;2.30;;;14.50;99.90;;;;;;5006300;28;20180;-69
2024/04/06 06:15:51;;;;;;;2.10;1.90;;;14.60;99.90;;;;;;5024104;28;20184;-70
2024/04/06 06:18:17;;;;;;;2.27;2.00;;;14.80;99.90;;;;;;5023704;28;20282;-68
2024/04/06 06:20:42;;;;;;;5.13;2.07;;;14.80;99.90;;;;;;5023910;28;20565;-68
2024/04/06 06:23:08;;;;;;;6.00;2.30;;;14.90;99.90;;;;;;5024205;28;20173;-68
2024/04/06 06:25:34;;;;;;;2.63;2.43;;;15.00;99.90;;;;;;5024257;28;20287;-67
2024/04/06 06:28:00;;;;;;;3.53;2.70;;;15.10;99.90;;;;;;5023792;28;20695;-69
2024/04/06 06:30:26;;;;;;;4.83;2.57;;;15.20;99.90;;;;;;5023819;28;20439;-70
2024/04/06 06:32:52;;;;;;;4.53;2.20;;;15.30;99.90;;;;;;5023972;28;20327;-69
2024/04/06 06:35:18;;;;;;;3.50;2.67;;;15.50;99.90;;;;;;5023769;28;20954;-70
2024/04/06 06:37:45;;;;;;;2.60;2.40;;;15.60;99.90;;;;;;5023657;28;20413;-69
2024/04/06 06:40:10;;;;;;;3.33;2.50;;;15.70;99.90;;;;;;5023556;28;20579;-69
2024/04/06 06:42:36;;;;;;;3.27;2.23;;;15.70;99.90;;;;;;5023873;28;21181;-68
2024/04/06 06:45:05;;;;;;;3.20;2.33;;;15.80;99.90;;;;;;5024254;28;20189;-67
2024/04/06 06:47:32;;;;;;;3.07;2.37;;;15.90;99.90;;;;;;5023858;28;20185;-68
2024/04/06 06:49:58;;;;;;;3.63;2.27;;;16.10;99.90;;;;;;5024230;28;20417;-69
2024/04/06 06:52:23;;;;;;;3.93;2.40;;;16.20;99.90;;;;;;5023767;28;20551;-70
2024/04/06 06:54:49;;;;;;;2.60;2.20;;;16.30;99.90;;;;;;5023506;28;20194;-69
2024/04/06 06:57:14;;;;;;;2.60;2.00;;;16.40;99.90;;;;;;5023534;28;20286;-68
2024/04/06 06:59:40;;;;;;;2.60;1.97;;;16.50;99.90;;;;;;5023407;28;20210;-67
2024/04/06 07:02:05;;;;;;;2.47;1.97;;;16.60;99.90;;;;;;5023417;28;20214;-68
2024/04/06 07:04:32;;;;;;;2.17;1.97;;;16.70;99.90;;;;;;5022984;28;20186;-69
2024/04/06 07:06:58;;;;;;;6.17;3.20;;;16.90;99.90;;;;;;5023368;28;20262;-70
2024/04/06 07:09:23;;;;;;;3.90;3.53;;;16.80;99.90;;;;;;5022453;28;20529;-70
2024/04/06 07:11:49;;;;;;;3.70;2.80;;;17.00;99.90;;;;;;5005214;28;20183;-69
2024/04/06 07:14:15;;;;;;;4.60;2.40;;;17.10;99.90;;;;;;5022966;28;20884;-69
2024/04/06 07:16:40;;;;;;;2.10;1.80;;;17.10;99.90;;;;;;5023345;28;20240;-69
2024/04/06 07:19:06;;;;;;;3.37;2.20;;;17.20;99.90;;;;;;5022742;28;20865;-70
2024/04/06 07:21:32;;;;;;;3.10;2.10;;;17.40;99.90;;;;;;5023101;28;20207;-69
2024/04/06 07:23:58;;;;;;;5.60;2.67;;;17.40;99.90;;;;;;5022764;28;20476;-69
2024/04/06 07:26:38;;;;;;;3.03;2.03;;;17.30;99.90;;;;;;5023251;28;20229;-70
2024/04/06 07:29:04;;;;;;;2.57;2.37;;;17.40;99.90;;;;;;5023412;28;20568;-69
2024/04/06 07:31:29;;;;;;;6.23;3.13;;;17.20;99.90;;;;;;5023694;28;20429;-70
2024/04/06 07:33:55;;;;;;;3.93;2.57;;;17.30;99.90;;;;;;5023235;28;20375;-69
2024/04/06 07:36:20;;;;;;;2.90;2.60;;;17.50;99.90;;;;;;5022791;28;20187;-70
2024/04/06 07:38:46;;;;;;;3.50;3.07;;;17.60;99.90;;;;;;5022534;28;20203;-70
2024/04/06 07:41:12;;;;;;;4.30;2.77;;;17.90;99.90;;;;;;5022626;28;20205;-69
2024/04/06 07:43:37;;;;;;;4.07;3.23;;;17.70;99.90;;;;;;5022791;28;20764;-70
2024/04/06 07:46:03;;;;;;;3.97;2.50;;;17.80;99.90;;;;;;5022676;28;20191;-68
2024/04/06 07:48:28;;;;;;;5.23;3.60;;;17.70;99.90;;;;;;5004893;28;20639;-69
2024/04/06 07:50:54;;;;;;;5.40;3.33;;;17.80;99.90;;;;;;5022583;28;20187;-69
2024/04/06 07:53:20;;;;;;;6.03;3.43;;;17.70;99.90;;;;;;5004555;28;20214;-70
2024/04/06 07:55:45;;;;;;;4.33;3.43;;;17.70;99.90;;;;;;5022781;28;20206;-69
2024/04/06 07:58:11;;;;;;;3.57;2.90;;;17.90;99.90;;;;;;5022207;28;20692;-67
2024/04/06 08:00:37;;;;;;;4.90;3.47;;;18.00;99.90;;;;;;5004665;28;20207;-70
2024/04/06 08:03:06;;;;;;;4.53;2.93;;;18.40;99.90;;;;;;5022685;28;20638;-70
2024/04/06 08:05:32;;;;;;;4.20;3.00;;;18.70;99.90;;;;;;5022401;28;20435;-68
2024/04/06 08:07:57;;;;;;;4.03;2.50;;;18.90;99.90;;;;;;5022471;28;20422;-69
2024/04/06 08:10:23;;;;;;;3.30;2.37;;;18.90;99.90;;;;;;5022186;28;20194;-70
2024/04/06 08:12:50;;;;;;;4.27;2.30;;;19.00;99.90;;;;;;5022172;28;20182;-69
2024/04/06 08:15:16;;;;;;;3.23;2.93;;;19.00;99.90;;;;;;5022779;28;20541;-70
2024/04/06 08:17:45;;;;;;;3.77;1.70;;;19.20;99.90;;;;;;5022178;28;20420;-71
2024/04/06 08:20:11;;;;;;;2.30;1.70;;;19.20;99.90;;;;;;5021729;28;20240;-70
2024/04/06 08:22:37;;;;;;;1.97;1.60;;;19.40;99.90;;;;;;5004494;28;20778;-70
2024/04/06 08:25:05;;;;;;;4.20;2.07;;;19.70;99.90;;;;;;5022213;28;20436;-69
2024/04/06 08:27:34;;;;;;;4.03;2.33;;;19.90;99.90;;;;;;5022524;28;20426;-69
2024/04/06 08:30:00;;;;;;;4.20;2.33;;;20.00;99.90;;;;;;5022428;28;20500;-74
2024/04/06 08:32:29;;;;;;;2.47;2.23;;;20.20;99.90;;;;;;5022504;28;20410;-68
2024/04/06 08:34:55;;;;;;;4.70;2.20;;;20.20;99.90;;;;;;5022671;28;20689;-71
2024/04/06 08:37:21;;;;;;;2.50;1.90;;;20.30;99.90;;;;;;5023246;28;20482;-70
2024/04/06 08:39:47;;;;;;;2.33;1.70;;;20.40;99.90;;;;;;5005836;28;20437;-73
2024/04/06 08:42:18;;;;;;;4.00;2.00;;;20.50;99.90;;;;;;5005865;28;20426;-70
2024/04/06 08:44:44;;;;;;;2.77;1.90;;;20.50;99.10;;;;;;5021829;28;20171;-71
2024/04/06 08:47:20;;;;;;;5.23;1.93;;;20.50;99.10;;;;;;5022115;28;20418;-69
2024/04/06 08:49:46;;;;;;;2.60;1.77;;;20.60;99.10;;;;;;5021705;28;20434;-68
2024/04/06 08:52:13;;;;;;;1.60;1.50;;;20.80;99.10;;;;;;5023837;28;20446;-73
2024/04/06 08:54:39;;;;;;;2.40;1.50;;;20.90;99.00;;;;;;5022671;28;20418;-68
2024/04/06 08:57:05;;;;;;;2.33;1.63;;;21.00;98.80;;;;;;5021745;28;20449;-70
2024/04/06 08:59:34;;;;;;;2.70;1.60;;;21.00;97.90;;;;;;5022877;28;20469;-69
2024/04/06 09:02:01;;;;;;;1.80;1.40;;;21.10;97.80;;;;;;5023537;28;20278;-70
2024/04/06 09:04:27;;;;;;;2.03;1.70;;;21.30;97.50;;;;;;5022951;28;20424;-69
2024/04/06 09:06:52;;;;;;;2.07;1.30;;;21.40;97.20;;;;;;5023382;28;20406;-70
2024/04/06 09:09:18;;;;;;;3.60;1.20;;;21.50;97.00;;;;;;5022573;28;20195;-70
2024/04/06 09:11:44;;;;;;;6.10;1.87;;;21.70;96.50;;;;;;5023417;28;20183;-69
2024/04/06 09:14:11;;;;;;;1.80;1.30;;;21.70;96.00;;;;;;5023862;28;20183;-69
2024/04/06 09:16:38;;;;;;;2.30;1.30;;;21.70;95.50;;;;;;5022738;28;20467;-69
2024/04/06 09:19:04;;;;;;;3.30;1.50;;;21.90;94.90;;;;;;5022439;28;20430;-71
2024/04/06 09:21:30;;;;;;;2.17;1.30;;;21.90;94.30;;;;;;5021986;28;20770;-70
2024/04/06 09:23:57;;;;;;;3.60;1.63;;;21.90;94.10;;;;;;5041645;23;20581;-69
2024/04/06 09:26:22;;;;;;;2.47;1.93;;;22.00;93.70;;;;;;5024485;28;20915;-71
2024/04/06 09:28:52;;;;;;;2.83;1.80;;;22.10;94.00;;;;;;5042363;28;20650;-70
2024/04/06 09:31:23;;;;;;;3.50;1.20;;;22.20;94.00;;;;;;5042905;28;20182;-71
2024/04/06 09:33:55;;;;;;;4.40;2.07;;;22.30;92.90;;;;;;5046128;28;20588;-71
2024/04/06 09:36:21;;;;;;;3.30;1.30;;;22.50;93.60;;;;;;5025930;28;20406;-72
2024/04/06 09:38:51;;;;;;;2.50;1.50;;;22.40;92.20;;;;;;5046155;28;20420;-71
2024/04/06 09:41:19;;;;;;;3.03;1.67;;;22.50;92.60;;;;;;5045688;28;20488;-70
2024/04/06 09:43:49;;;;;;;3.90;1.70;;;22.50;92.40;;;;;;5045793;28;20580;-71
2024/04/06 09:46:16;;;;;;;2.50;1.70;;;22.60;92.30;;;;;;5025843;28;20410;-69
2024/04/06 09:48:42;;;;;;;2.90;1.70;;;22.80;92.70;;;;;;5032455;28;20519;-73
2024/04/06 09:51:09;;;;;;;2.27;1.50;;;23.00;92.10;;;;;;5045109;28;20417;-72
2024/04/06 09:53:35;;;;;;;2.77;1.90;;;22.90;93.20;;;;;;5044968;28;20190;-70
2024/04/06 09:56:02;;;;;;;2.33;1.40;;;23.10;91.60;;;;;;5028161;28;20743;-71
2024/04/06 09:58:29;;;;;;;5.57;1.80;;;23.10;90.40;;;;;;5025523;28;20410;-71
2024/04/06 10:01:09;;;;;;;3.93;1.47;;;23.20;90.50;;;;;;5025102;28;20458;-72
2024/04/06 10:03:35;;;;;;;3.67;1.77;;;23.30;86.40;;;;;;5025389;28;20453;-71
2024/04/06 10:06:18;;;;;;;2.60;1.50;;;23.50;83.90;;;;;;5026818;28;20880;-69
2024/04/06 10:08:56;;;;;;;2.00;1.07;;;23.70;84.50;;;;;;5028623;28;20583;-71
2024/04/06 10:11:24;;;;;;;1.43;1.30;;;23.70;80.40;;;;;;5044773;28;20416;-72
2024/04/06 10:13:59;;;;;;;1.63;1.17;;;23.90;80.20;;;;;;5044806;28;20822;-71
2024/04/06 10:16:29;;;;;;;2.13;1.37;;;23.90;73.10;;;;;;5025268;28;20409;-70
2024/04/06 10:18:56;;;;;;;2.50;1.40;;;23.90;72.60;;;;;;5025125;28;20563;-71
2024/04/06 10:21:26;;;;;;;1.40;1.10;;;24.10;73.90;;;;;;5024735;28;21076;-71
2024/04/06 10:23:53;;;;;;;2.43;1.00;;;24.40;74.20;;;;;;5024951;28;20442;-72
2024/04/06 10:26:20;;;;;;;1.37;0.80;;;24.50;72.60;;;;;;5025047;28;20489;-72
2024/04/06 10:28:47;;;;;;;1.30;1.00;;;24.50;68.80;;;;;;5038583;28;20439;-71
2024/04/06 10:31:13;;;;;;;1.30;1.00;;;24.50;62.30;;;;;;5044540;28;21644;-72
2024/04/06 10:33:42;;;;;;;2.33;1.10;;;24.40;63.40;;;;;;5041703;28;20476;-72
2024/04/06 10:36:12;;;;;;;2.10;1.10;;;24.60;60.10;;;;;;5027151;28;20254;-72
2024/04/06 10:38:41;;;;;;;1.43;1.00;;;24.70;59.60;;;;;;5044776;28;20413;-71
2024/04/06 10:41:08;;;;;;;1.50;1.20;;;24.80;60.90;;;;;;5044401;28;20444;-72
2024/04/06 10:43:35;;;;;;;2.40;1.50;;;25.00;57.80;;;;;;5043931;28;20440;-67
2024/04/06 10:46:02;;;;;;;2.40;1.03;;;25.10;58.70;;;;;;5027939;28;20806;-67
2024/04/06 10:48:28;;;;;;;1.60;0.90;;;25.30;58.00;;;;;;5024560;28;20501;-68
2024/04/06 10:50:55;;;;;;;1.90;1.00;;;26.40;56.60;;;;;;5024301;28;20493;-69
2024/04/06 10:53:25;;;;;;;2.20;1.10;;;28.00;54.70;;;;;;5024423;28;20430;-70
2024/04/06 10:55:52;;;;;;;2.17;1.00;;;30.30;51.70;;;;;;5024585;28;21062;-68
2024/04/06 10:58:18;;;;;;;1.57;1.10;;;30.80;46.30;;;;;;5041288;28;20786;-69
2024/04/06 11:00:45;;;;;;;2.23;1.30;;;31.60;44.80;;;;;;5044341;28;20457;-69
2024/04/06 11:03:10;;;;;;;2.03;1.10;;;31.50;43.80;;;;;;5044250;28;20583;-70
2024/04/06 11:05:37;;;;;;;2.37;1.17;;;32.30;42.60;;;;;;5031853;28;20421;-68
2024/04/06 11:08:04;;;;;;;1.87;1.10;;;32.60;40.80;;;;;;5038261;28;20175;-68
2024/04/06 11:10:30;;;;;;;1.63;1.20;;;32.50;41.40;;;;;;5043823;28;20462;-69
2024/04/06 11:13:00;;;;;;;1.47;1.03;;;32.60;39.60;;;;;;5045190;28;20429;-68
2024/04/06 11:15:26;;;;;;;1.90;1.10;;;32.60;38.90;;;;;;5026651;28;20464;-69
2024/04/06 11:17:53;;;;;;;3.37;1.20;;;32.50;39.50;;;;;;5024287;28;20816;-68
2024/04/06 11:20:19;;;;;;;2.13;1.40;;;33.40;39.40;;;;;;5024161;28;20497;-67
2024/04/06 11:22:45;;;;;;;1.57;1.10;;;32.70;37.80;;;;;;5023848;28;21192;-68
2024/04/06 11:25:19;;;;;;;1.73;1.30;;;33.90;38.10;;;;;;5024025;28;20662;-68
2024/04/06 11:27:49;;;;;;;1.33;1.00;;;34.00;36.60;;;;;;5023845;28;20183;-67
2024/04/06 11:30:16;;;;;;;1.30;0.77;;;34.00;37.00;;;;;;5023447;28;20458;-68
2024/04/06 11:32:42;;;;;;;1.20;1.00;;;35.00;37.40;;;;;;5024110;28;20806;-67
2024/04/06 11:35:08;;;;;;;1.73;1.20;;;33.80;34.00;;;;;;5007931;28;20410;-68
2024/04/06 11:37:34;;;;;;;2.80;1.00;;;33.20;34.90;;;;;;5039234;28;20212;-67
2024/04/06 11:40:00;;;;;;;1.43;0.93;;;33.80;35.40;;;;;;5025817;28;20183;-68
2024/04/06 11:42:25;;;;;;;2.30;1.10;;;34.60;33.20;;;;;;5023691;28;20179;-69
2024/04/06 11:44:51;;;;;;;2.10;1.10;;;34.80;33.00;;;;;;5023836;28;20175;-68
2024/04/06 11:47:17;;;;;;;1.73;1.10;;;34.20;33.90;;;;;;5043672;28;20178;-68
2024/04/06 11:49:42;;;;;;;2.10;1.10;;;34.10;33.70;;;;;;5041259;28;20185;-67
2024/04/06 11:52:08;;;;;;;3.00;1.30;;;34.20;31.90;;;;;;5023275;28;20241;-67
2024/04/06 11:54:35;;;;;;;1.20;0.87;;;33.70;34.00;;;;;;5023044;28;20430;-70
2024/04/06 11:57:01;;;;;;;1.50;1.07;;;33.60;32.40;;;;;;5023498;28;20421;-67
2024/04/06 11:59:26;;;;;;;1.23;1.00;;;33.80;32.90;;;;;;5023372;28;20414;-66
2024/04/06 12:01:53;;;;;;;4.03;1.00;;;34.30;34.20;;;;;;5023648;28;20178;-67
2024/04/06 12:04:19;;;;;;;1.67;0.90;;;34.40;32.00;;;;;;5023428;28;20227;-70
2024/04/06 12:06:45;;;;;;;2.33;0.90;;;34.70;31.60;;;;;;5043637;28;20927;-70
2024/04/06 12:09:11;;;;;;;1.20;0.87;;;36.00;30.00;;;;;;5043266;28;20190;-71
2024/04/06 12:11:39;;;;;;;1.93;0.90;;;36.80;30.80;;;;;;5041461;28;20210;-67
2024/04/06 12:14:04;;;;;;;2.63;1.10;;;36.70;29.70;;;;;;5023175;28;20231;-68
2024/04/06 12:16:30;;;;;;;2.20;1.77;;;36.70;29.50;;;;;;5022904;28;20460;-67
2024/04/06 12:18:56;;;;;;;1.40;1.00;;;37.80;29.90;;;;;;5023187;28;20172;-67
2024/04/06 12:21:23;;;;;;;1.20;0.93;;;37.00;30.70;;;;;;5022938;28;20499;-67
2024/04/06 12:23:49;;;;;;;1.17;0.93;;;37.40;28.70;;;;;;5022776;28;20574;-67
2024/04/06 12:26:15;;;;;;;1.83;1.00;;;36.20;29.50;;;;;;5028813;28;20420;-68
2024/04/06 12:28:41;;;;;;;1.43;1.00;;;36.70;29.50;;;;;;5042645;28;20192;-67
2024/04/06 12:31:07;;;;;;;1.33;1.20;;;35.80;30.10;;;;;;5042978;28;20456;-69
2024/04/06 12:33:32;;;;;;;1.43;1.10;;;36.00;30.40;;;;;;5042770;28;20201;-66
2024/04/06 12:35:58;;;;;;;1.27;0.80;;;35.70;31.10;;;;;;5028851;28;20229;-69
2024/04/06 12:38:24;;;;;;;1.47;1.10;;;36.40;29.40;;;;;;5032012;28;20183;-68
2024/04/06 12:40:50;;;;;;;2.40;1.20;;;36.30;30.10;;;;;;5042925;28;20715;-65
2024/04/06 12:43:15;;;;;;;1.43;0.97;;;36.50;31.20;;;;;;5042512;28;20198;-68